Aviation Digital Data Service (ADDS)

Output produced by METARs form (1655 UTC 25 July 2017)
found at http://aviationweather.gov/adds/metars/
 
KGNV 251643Z 2517/2612 25009KT P6SM SCT040 BKN250 
     FM260000 25004KT P6SM SCT250